sensor_id;sensor_type;location;lat;lon;timestamp;P1;durP1;ratioP1;P2;durP2;ratioP2
51438;SDS011;38816;51.142;-0.974;2023-03-14T00:00:50;22.73;;;2.75;;
51438;SDS011;38816;51.142;-0.974;2023-03-14T00:03:16;23.85;;;3.13;;
51438;SDS011;38816;51.142;-0.974;2023-03-14T00:05:41;17.60;;;2.42;;
51438;SDS011;38816;51.142;-0.974;2023-03-14T00:08:06;21.55;;;2.63;;
51438;SDS011;38816;51.142;-0.974;2023-03-14T00:10:32;22.00;;;2.75;;
51438;SDS011;38816;51.142;-0.974;2023-03-14T00:12:57;18.92;;;2.00;;
51438;SDS011;38816;51.142;-0.974;2023-03-14T00:15:23;20.90;;;2.70;;
51438;SDS011;38816;51.142;-0.974;2023-03-14T00:17:48;30.05;;;3.03;;
51438;SDS011;38816;51.142;-0.974;2023-03-14T00:20:13;18.90;;;2.00;;
51438;SDS011;38816;51.142;-0.974;2023-03-14T00:22:39;19.52;;;2.13;;
51438;SDS011;38816;51.142;-0.974;2023-03-14T00:25:06;18.35;;;2.53;;
51438;SDS011;38816;51.142;-0.974;2023-03-14T00:27:33;13.10;;;2.30;;
51438;SDS011;38816;51.142;-0.974;2023-03-14T00:29:59;19.63;;;2.28;;
51438;SDS011;38816;51.142;-0.974;2023-03-14T00:32:24;13.63;;;2.33;;
51438;SDS011;38816;51.142;-0.974;2023-03-14T00:34:50;20.27;;;2.40;;
51438;SDS011;38816;51.142;-0.974;2023-03-14T00:37:15;9.75;;;1.73;;
51438;SDS011;38816;51.142;-0.974;2023-03-14T00:39:41;11.32;;;2.03;;
51438;SDS011;38816;51.142;-0.974;2023-03-14T00:42:06;8.50;;;1.88;;
51438;SDS011;38816;51.142;-0.974;2023-03-14T00:44:32;18.13;;;2.95;;
51438;SDS011;38816;51.142;-0.974;2023-03-14T00:46:59;10.93;;;1.70;;
51438;SDS011;38816;51.142;-0.974;2023-03-14T00:49:25;4.90;;;1.08;;
51438;SDS011;38816;51.142;-0.974;2023-03-14T00:51:50;6.45;;;1.42;;
51438;SDS011;38816;51.142;-0.974;2023-03-14T00:54:16;9.82;;;1.25;;
51438;SDS011;38816;51.142;-0.974;2023-03-14T00:56:42;1.42;;;0.30;;
51438;SDS011;38816;51.142;-0.974;2023-03-14T00:59:07;1.67;;;0.40;;
51438;SDS011;38816;51.142;-0.974;2023-03-14T01:01:33;0.65;;;0.38;;
51438;SDS011;38816;51.142;-0.974;2023-03-14T01:03:58;1.85;;;0.38;;
51438;SDS011;38816;51.142;-0.974;2023-03-14T01:06:25;1.83;;;0.50;;
51438;SDS011;38816;51.142;-0.974;2023-03-14T01:08:52;0.55;;;0.40;;
51438;SDS011;38816;51.142;-0.974;2023-03-14T01:11:22;1.85;;;0.55;;
51438;SDS011;38816;51.142;-0.974;2023-03-14T01:13:52;0.55;;;0.32;;
51438;SDS011;38816;51.142;-0.974;2023-03-14T01:16:18;2.05;;;0.60;;
51438;SDS011;38816;51.142;-0.974;2023-03-14T01:18:44;2.53;;;0.50;;
51438;SDS011;38816;51.142;-0.974;2023-03-14T01:21:13;2.28;;;0.70;;
51438;SDS011;38816;51.142;-0.974;2023-03-14T01:23:38;1.17;;;0.73;;
51438;SDS011;38816;51.142;-0.974;2023-03-14T01:26:04;0.80;;;0.52;;
51438;SDS011;38816;51.142;-0.974;2023-03-14T01:28:32;0.82;;;0.63;;
51438;SDS011;38816;51.142;-0.974;2023-03-14T01:31:01;0.50;;;0.50;;
51438;SDS011;38816;51.142;-0.974;2023-03-14T01:33:28;1.83;;;0.70;;
51438;SDS011;38816;51.142;-0.974;2023-03-14T01:35:53;1.40;;;0.90;;
51438;SDS011;38816;51.142;-0.974;2023-03-14T01:38:19;1.05;;;0.77;;
51438;SDS011;38816;51.142;-0.974;2023-03-14T01:40:44;2.38;;;0.70;;
51438;SDS011;38816;51.142;-0.974;2023-03-14T01:43:14;0.60;;;0.60;;
51438;SDS011;38816;51.142;-0.974;2023-03-14T01:55:21;1.55;;;0.70;;
51438;SDS011;38816;51.142;-0.974;2023-03-14T01:57:25;0.57;;;0.50;;
51438;SDS011;38816;51.142;-0.974;2023-03-14T02:02:36;2.20;;;0.50;;
51438;SDS011;38816;51.142;-0.974;2023-03-14T02:05:04;2.40;;;0.90;;
51438;SDS011;38816;51.142;-0.974;2023-03-14T02:10:20;2.22;;;0.52;;
51438;SDS011;38816;51.142;-0.974;2023-03-14T02:12:49;4.43;;;0.80;;
51438;SDS011;38816;51.142;-0.974;2023-03-14T02:15:15;1.38;;;0.60;;
51438;SDS011;38816;51.142;-0.974;2023-03-14T02:17:41;1.17;;;0.60;;
51438;SDS011;38816;51.142;-0.974;2023-03-14T02:22:53;4.13;;;0.80;;
51438;SDS011;38816;51.142;-0.974;2023-03-14T02:27:50;2.75;;;0.80;;
51438;SDS011;38816;51.142;-0.974;2023-03-14T02:30:26;4.18;;;0.70;;
51438;SDS011;38816;51.142;-0.974;2023-03-14T02:32:57;3.05;;;0.68;;
51438;SDS011;38816;51.142;-0.974;2023-03-14T02:35:29;1.98;;;0.60;;
51438;SDS011;38816;51.142;-0.974;2023-03-14T02:38:04;3.42;;;1.05;;
51438;SDS011;38816;51.142;-0.974;2023-03-14T02:40:34;1.48;;;0.80;;
51438;SDS011;38816;51.142;-0.974;2023-03-14T02:43:00;4.82;;;0.88;;
51438;SDS011;38816;51.142;-0.974;2023-03-14T02:45:30;2.03;;;0.70;;
51438;SDS011;38816;51.142;-0.974;2023-03-14T02:48:00;5.25;;;0.80;;
51438;SDS011;38816;51.142;-0.974;2023-03-14T02:50:31;1.75;;;0.75;;
51438;SDS011;38816;51.142;-0.974;2023-03-14T02:52:59;1.05;;;0.70;;
51438;SDS011;38816;51.142;-0.974;2023-03-14T02:55:24;1.92;;;0.60;;
51438;SDS011;38816;51.142;-0.974;2023-03-14T02:57:51;2.65;;;0.90;;
51438;SDS011;38816;51.142;-0.974;2023-03-14T03:00:17;2.83;;;1.13;;
51438;SDS011;38816;51.142;-0.974;2023-03-14T03:02:43;7.50;;;0.77;;
51438;SDS011;38816;51.142;-0.974;2023-03-14T03:05:08;4.95;;;0.93;;
51438;SDS011;38816;51.142;-0.974;2023-03-14T03:07:34;2.80;;;1.17;;
51438;SDS011;38816;51.142;-0.974;2023-03-14T03:09:59;8.23;;;0.98;;
51438;SDS011;38816;51.142;-0.974;2023-03-14T03:12:25;5.13;;;1.00;;
51438;SDS011;38816;51.142;-0.974;2023-03-14T03:14:50;6.13;;;0.85;;
51438;SDS011;38816;51.142;-0.974;2023-03-14T03:17:15;3.20;;;1.00;;
51438;SDS011;38816;51.142;-0.974;2023-03-14T03:19:41;3.13;;;0.93;;
51438;SDS011;38816;51.142;-0.974;2023-03-14T03:22:06;8.10;;;1.13;;
51438;SDS011;38816;51.142;-0.974;2023-03-14T03:24:32;6.75;;;1.23;;
51438;SDS011;38816;51.142;-0.974;2023-03-14T03:26:57;8.82;;;1.27;;
51438;SDS011;38816;51.142;-0.974;2023-03-14T03:29:23;7.25;;;1.42;;
51438;SDS011;38816;51.142;-0.974;2023-03-14T03:31:48;11.07;;;1.50;;
51438;SDS011;38816;51.142;-0.974;2023-03-14T03:34:14;5.45;;;1.20;;
51438;SDS011;38816;51.142;-0.974;2023-03-14T03:36:39;4.28;;;1.00;;
51438;SDS011;38816;51.142;-0.974;2023-03-14T03:39:05;4.82;;;1.25;;
51438;SDS011;38816;51.142;-0.974;2023-03-14T03:41:30;8.73;;;1.20;;
51438;SDS011;38816;51.142;-0.974;2023-03-14T03:43:56;3.38;;;1.17;;
51438;SDS011;38816;51.142;-0.974;2023-03-14T03:46:21;9.48;;;1.50;;
51438;SDS011;38816;51.142;-0.974;2023-03-14T03:48:47;4.85;;;1.05;;
51438;SDS011;38816;51.142;-0.974;2023-03-14T03:51:13;10.05;;;1.50;;
51438;SDS011;38816;51.142;-0.974;2023-03-14T03:53:40;7.75;;;1.35;;
51438;SDS011;38816;51.142;-0.974;2023-03-14T03:56:06;5.63;;;1.30;;
51438;SDS011;38816;51.142;-0.974;2023-03-14T03:58:31;5.78;;;1.10;;
51438;SDS011;38816;51.142;-0.974;2023-03-14T04:00:57;4.38;;;1.42;;
51438;SDS011;38816;51.142;-0.974;2023-03-14T04:03:22;3.90;;;0.75;;
51438;SDS011;38816;51.142;-0.974;2023-03-14T04:05:57;4.30;;;1.25;;
51438;SDS011;38816;51.142;-0.974;2023-03-14T04:08:33;8.80;;;1.30;;
51438;SDS011;38816;51.142;-0.974;2023-03-14T04:10:59;6.07;;;1.33;;
51438;SDS011;38816;51.142;-0.974;2023-03-14T04:13:26;11.75;;;1.38;;
51438;SDS011;38816;51.142;-0.974;2023-03-14T04:15:52;2.92;;;1.20;;
51438;SDS011;38816;51.142;-0.974;2023-03-14T04:18:18;6.05;;;1.10;;
51438;SDS011;38816;51.142;-0.974;2023-03-14T04:20:44;6.00;;;1.00;;
51438;SDS011;38816;51.142;-0.974;2023-03-14T04:23:09;4.97;;;1.27;;
51438;SDS011;38816;51.142;-0.974;2023-03-14T04:25:35;3.03;;;1.17;;
51438;SDS011;38816;51.142;-0.974;2023-03-14T04:28:01;9.50;;;1.55;;
51438;SDS011;38816;51.142;-0.974;2023-03-14T04:30:26;6.80;;;1.20;;
51438;SDS011;38816;51.142;-0.974;2023-03-14T04:32:52;7.28;;;1.83;;
51438;SDS011;38816;51.142;-0.974;2023-03-14T04:35:17;1.92;;;0.90;;
51438;SDS011;38816;51.142;-0.974;2023-03-14T04:37:43;2.28;;;0.93;;
51438;SDS011;38816;51.142;-0.974;2023-03-14T04:40:09;5.40;;;1.23;;
51438;SDS011;38816;51.142;-0.974;2023-03-14T04:42:35;6.18;;;1.40;;
51438;SDS011;38816;51.142;-0.974;2023-03-14T04:45:00;6.10;;;1.00;;
51438;SDS011;38816;51.142;-0.974;2023-03-14T04:47:26;11.35;;;1.88;;
51438;SDS011;38816;51.142;-0.974;2023-03-14T04:49:51;12.13;;;1.60;;
51438;SDS011;38816;51.142;-0.974;2023-03-14T04:52:17;6.22;;;1.10;;
51438;SDS011;38816;51.142;-0.974;2023-03-14T04:54:42;4.45;;;1.20;;
51438;SDS011;38816;51.142;-0.974;2023-03-14T04:57:08;15.02;;;2.13;;
51438;SDS011;38816;51.142;-0.974;2023-03-14T04:59:33;11.32;;;1.65;;
51438;SDS011;38816;51.142;-0.974;2023-03-14T05:01:59;7.13;;;1.80;;
51438;SDS011;38816;51.142;-0.974;2023-03-14T05:07:14;6.63;;;1.38;;
51438;SDS011;38816;51.142;-0.974;2023-03-14T05:09:40;15.55;;;1.67;;
51438;SDS011;38816;51.142;-0.974;2023-03-14T05:12:05;13.20;;;1.35;;
51438;SDS011;38816;51.142;-0.974;2023-03-14T05:14:31;8.48;;;1.30;;
51438;SDS011;38816;51.142;-0.974;2023-03-14T05:16:56;3.92;;;1.17;;
51438;SDS011;38816;51.142;-0.974;2023-03-14T05:19:21;8.20;;;1.17;;
51438;SDS011;38816;51.142;-0.974;2023-03-14T05:21:47;7.57;;;1.50;;
51438;SDS011;38816;51.142;-0.974;2023-03-14T05:24:12;7.22;;;1.33;;
51438;SDS011;38816;51.142;-0.974;2023-03-14T05:26:38;14.05;;;2.25;;
51438;SDS011;38816;51.142;-0.974;2023-03-14T05:29:03;7.72;;;1.35;;
51438;SDS011;38816;51.142;-0.974;2023-03-14T05:31:28;11.52;;;2.10;;
51438;SDS011;38816;51.142;-0.974;2023-03-14T05:33:54;1.98;;;0.73;;
51438;SDS011;38816;51.142;-0.974;2023-03-14T05:36:19;5.88;;;1.30;;
51438;SDS011;38816;51.142;-0.974;2023-03-14T05:38:44;13.57;;;1.80;;
51438;SDS011;38816;51.142;-0.974;2023-03-14T05:41:10;12.80;;;1.88;;
51438;SDS011;38816;51.142;-0.974;2023-03-14T05:43:35;11.77;;;1.58;;
51438;SDS011;38816;51.142;-0.974;2023-03-14T05:46:01;9.90;;;1.65;;
51438;SDS011;38816;51.142;-0.974;2023-03-14T05:48:26;12.45;;;1.73;;
51438;SDS011;38816;51.142;-0.974;2023-03-14T05:50:55;9.00;;;1.55;;
51438;SDS011;38816;51.142;-0.974;2023-03-14T05:53:21;7.32;;;1.20;;
51438;SDS011;38816;51.142;-0.974;2023-03-14T05:55:47;5.70;;;1.23;;
51438;SDS011;38816;51.142;-0.974;2023-03-14T05:58:12;4.05;;;0.98;;
51438;SDS011;38816;51.142;-0.974;2023-03-14T06:00:38;11.52;;;1.85;;
51438;SDS011;38816;51.142;-0.974;2023-03-14T06:03:03;9.70;;;1.30;;
51438;SDS011;38816;51.142;-0.974;2023-03-14T06:05:28;10.80;;;1.27;;
51438;SDS011;38816;51.142;-0.974;2023-03-14T06:07:54;11.63;;;1.40;;
51438;SDS011;38816;51.142;-0.974;2023-03-14T06:10:19;6.68;;;1.20;;
51438;SDS011;38816;51.142;-0.974;2023-03-14T06:12:44;10.45;;;1.55;;
51438;SDS011;38816;51.142;-0.974;2023-03-14T06:15:10;8.00;;;1.67;;
51438;SDS011;38816;51.142;-0.974;2023-03-14T06:17:35;4.55;;;1.33;;
51438;SDS011;38816;51.142;-0.974;2023-03-14T06:20:01;10.60;;;1.60;;
51438;SDS011;38816;51.142;-0.974;2023-03-14T06:22:27;11.65;;;1.35;;
51438;SDS011;38816;51.142;-0.974;2023-03-14T06:24:52;17.55;;;1.52;;
51438;SDS011;38816;51.142;-0.974;2023-03-14T06:27:17;7.47;;;1.20;;
51438;SDS011;38816;51.142;-0.974;2023-03-14T06:29:43;7.30;;;1.10;;
51438;SDS011;38816;51.142;-0.974;2023-03-14T06:32:08;6.07;;;1.15;;
51438;SDS011;38816;51.142;-0.974;2023-03-14T06:34:33;4.78;;;1.35;;
51438;SDS011;38816;51.142;-0.974;2023-03-14T06:36:59;8.07;;;1.50;;
51438;SDS011;38816;51.142;-0.974;2023-03-14T06:39:24;6.88;;;1.35;;
51438;SDS011;38816;51.142;-0.974;2023-03-14T06:41:50;8.55;;;1.45;;
51438;SDS011;38816;51.142;-0.974;2023-03-14T06:44:15;13.70;;;2.05;;
51438;SDS011;38816;51.142;-0.974;2023-03-14T06:46:40;10.45;;;1.40;;
51438;SDS011;38816;51.142;-0.974;2023-03-14T06:49:06;11.65;;;1.52;;
51438;SDS011;38816;51.142;-0.974;2023-03-14T06:51:31;13.52;;;1.63;;
51438;SDS011;38816;51.142;-0.974;2023-03-14T06:53:57;9.32;;;1.13;;
51438;SDS011;38816;51.142;-0.974;2023-03-14T06:56:22;9.93;;;1.60;;
51438;SDS011;38816;51.142;-0.974;2023-03-14T06:58:48;9.65;;;1.30;;
51438;SDS011;38816;51.142;-0.974;2023-03-14T07:01:46;5.40;;;1.70;;
51438;SDS011;38816;51.142;-0.974;2023-03-14T07:04:05;6.05;;;1.27;;
51438;SDS011;38816;51.142;-0.974;2023-03-14T07:06:30;9.07;;;1.65;;
51438;SDS011;38816;51.142;-0.974;2023-03-14T07:08:56;8.95;;;1.17;;
51438;SDS011;38816;51.142;-0.974;2023-03-14T07:11:22;9.98;;;1.92;;
51438;SDS011;38816;51.142;-0.974;2023-03-14T07:13:47;9.27;;;1.30;;
51438;SDS011;38816;51.142;-0.974;2023-03-14T07:16:12;8.20;;;1.20;;
51438;SDS011;38816;51.142;-0.974;2023-03-14T07:18:38;10.73;;;1.70;;
51438;SDS011;38816;51.142;-0.974;2023-03-14T07:21:04;14.55;;;1.75;;
51438;SDS011;38816;51.142;-0.974;2023-03-14T07:23:31;11.55;;;1.58;;
51438;SDS011;38816;51.142;-0.974;2023-03-14T07:25:56;8.18;;;1.70;;
51438;SDS011;38816;51.142;-0.974;2023-03-14T07:28:22;4.72;;;1.17;;
51438;SDS011;38816;51.142;-0.974;2023-03-14T07:30:48;9.43;;;2.10;;
51438;SDS011;38816;51.142;-0.974;2023-03-14T07:33:13;4.22;;;0.93;;
51438;SDS011;38816;51.142;-0.974;2023-03-14T07:35:39;8.68;;;2.28;;
51438;SDS011;38816;51.142;-0.974;2023-03-14T07:38:04;6.13;;;1.40;;
51438;SDS011;38816;51.142;-0.974;2023-03-14T07:40:29;7.72;;;1.65;;
51438;SDS011;38816;51.142;-0.974;2023-03-14T07:42:55;4.88;;;1.17;;
51438;SDS011;38816;51.142;-0.974;2023-03-14T07:45:20;11.43;;;1.40;;
51438;SDS011;38816;51.142;-0.974;2023-03-14T07:47:46;9.95;;;1.40;;
51438;SDS011;38816;51.142;-0.974;2023-03-14T07:50:11;10.35;;;1.70;;
51438;SDS011;38816;51.142;-0.974;2023-03-14T07:52:36;19.05;;;1.98;;
51438;SDS011;38816;51.142;-0.974;2023-03-14T07:55:02;7.60;;;2.22;;
51438;SDS011;38816;51.142;-0.974;2023-03-14T07:57:27;7.38;;;1.33;;
51438;SDS011;38816;51.142;-0.974;2023-03-14T07:59:52;8.18;;;1.77;;
51438;SDS011;38816;51.142;-0.974;2023-03-14T08:02:18;14.10;;;1.55;;
51438;SDS011;38816;51.142;-0.974;2023-03-14T08:04:47;4.85;;;1.50;;
51438;SDS011;38816;51.142;-0.974;2023-03-14T08:07:12;6.22;;;1.60;;
51438;SDS011;38816;51.142;-0.974;2023-03-14T08:09:38;4.60;;;1.13;;
51438;SDS011;38816;51.142;-0.974;2023-03-14T08:12:03;7.70;;;1.27;;
51438;SDS011;38816;51.142;-0.974;2023-03-14T08:14:29;8.07;;;1.25;;
51438;SDS011;38816;51.142;-0.974;2023-03-14T08:16:55;6.47;;;1.58;;
51438;SDS011;38816;51.142;-0.974;2023-03-14T08:19:21;2.90;;;1.63;;
51438;SDS011;38816;51.142;-0.974;2023-03-14T08:21:46;10.25;;;1.55;;
51438;SDS011;38816;51.142;-0.974;2023-03-14T08:24:12;7.38;;;1.45;;
51438;SDS011;38816;51.142;-0.974;2023-03-14T08:26:37;9.82;;;1.33;;
51438;SDS011;38816;51.142;-0.974;2023-03-14T08:29:02;7.43;;;1.60;;
51438;SDS011;38816;51.142;-0.974;2023-03-14T08:31:29;6.10;;;1.48;;
51438;SDS011;38816;51.142;-0.974;2023-03-14T08:33:55;9.82;;;1.33;;
51438;SDS011;38816;51.142;-0.974;2023-03-14T08:36:20;11.43;;;2.30;;
51438;SDS011;38816;51.142;-0.974;2023-03-14T08:38:45;7.32;;;1.15;;
51438;SDS011;38816;51.142;-0.974;2023-03-14T08:41:11;12.98;;;1.92;;
51438;SDS011;38816;51.142;-0.974;2023-03-14T08:43:36;9.48;;;1.90;;
51438;SDS011;38816;51.142;-0.974;2023-03-14T08:46:02;6.35;;;1.50;;
51438;SDS011;38816;51.142;-0.974;2023-03-14T08:48:28;6.53;;;1.23;;
51438;SDS011;38816;51.142;-0.974;2023-03-14T08:50:56;6.47;;;1.40;;
51438;SDS011;38816;51.142;-0.974;2023-03-14T08:53:22;9.10;;;1.13;;
51438;SDS011;38816;51.142;-0.974;2023-03-14T08:55:51;3.67;;;1.08;;
51438;SDS011;38816;51.142;-0.974;2023-03-14T08:58:18;4.70;;;0.90;;
51438;SDS011;38816;51.142;-0.974;2023-03-14T09:00:43;4.72;;;1.10;;
51438;SDS011;38816;51.142;-0.974;2023-03-14T09:03:08;5.13;;;1.10;;
51438;SDS011;38816;51.142;-0.974;2023-03-14T09:05:34;4.22;;;0.95;;
51438;SDS011;38816;51.142;-0.974;2023-03-14T09:07:59;5.28;;;1.13;;
51438;SDS011;38816;51.142;-0.974;2023-03-14T09:10:25;6.57;;;1.00;;
51438;SDS011;38816;51.142;-0.974;2023-03-14T09:12:50;5.85;;;1.10;;
51438;SDS011;38816;51.142;-0.974;2023-03-14T09:15:16;6.68;;;1.10;;
51438;SDS011;38816;51.142;-0.974;2023-03-14T09:17:42;5.57;;;1.33;;
51438;SDS011;38816;51.142;-0.974;2023-03-14T09:20:09;1.20;;;0.60;;
51438;SDS011;38816;51.142;-0.974;2023-03-14T09:22:35;4.38;;;1.38;;
51438;SDS011;38816;51.142;-0.974;2023-03-14T09:25:01;4.43;;;0.80;;
51438;SDS011;38816;51.142;-0.974;2023-03-14T09:27:30;1.67;;;0.70;;
51438;SDS011;38816;51.142;-0.974;2023-03-14T09:29:56;1.05;;;0.70;;
51438;SDS011;38816;51.142;-0.974;2023-03-14T09:32:21;2.72;;;0.80;;
51438;SDS011;38816;51.142;-0.974;2023-03-14T09:34:46;2.55;;;0.90;;
51438;SDS011;38816;51.142;-0.974;2023-03-14T09:37:12;3.63;;;1.13;;
51438;SDS011;38816;51.142;-0.974;2023-03-14T09:39:37;1.65;;;0.70;;
51438;SDS011;38816;51.142;-0.974;2023-03-14T09:42:04;2.75;;;0.70;;
51438;SDS011;38816;51.142;-0.974;2023-03-14T09:44:34;1.65;;;0.63;;
51438;SDS011;38816;51.142;-0.974;2023-03-14T09:47:05;1.77;;;0.70;;
51438;SDS011;38816;51.142;-0.974;2023-03-14T09:52:00;1.83;;;0.70;;
51438;SDS011;38816;51.142;-0.974;2023-03-14T09:54:30;0.60;;;0.50;;
51438;SDS011;38816;51.142;-0.974;2023-03-14T09:57:01;2.13;;;0.77;;
51438;SDS011;38816;51.142;-0.974;2023-03-14T09:59:28;1.45;;;0.70;;
51438;SDS011;38816;51.142;-0.974;2023-03-14T10:01:56;1.55;;;0.80;;
51438;SDS011;38816;51.142;-0.974;2023-03-14T10:04:25;2.65;;;0.77;;
51438;SDS011;38816;51.142;-0.974;2023-03-14T10:06:53;0.80;;;0.80;;
51438;SDS011;38816;51.142;-0.974;2023-03-14T10:09:22;3.17;;;1.25;;
51438;SDS011;38816;51.142;-0.974;2023-03-14T10:11:52;1.95;;;0.75;;
51438;SDS011;38816;51.142;-0.974;2023-03-14T10:14:30;4.97;;;1.10;;
51438;SDS011;38816;51.142;-0.974;2023-03-14T10:17:04;2.85;;;1.10;;
51438;SDS011;38816;51.142;-0.974;2023-03-14T10:19:32;5.00;;;1.25;;
51438;SDS011;38816;51.142;-0.974;2023-03-14T10:21:57;2.80;;;1.00;;
51438;SDS011;38816;51.142;-0.974;2023-03-14T10:24:27;6.35;;;1.10;;
51438;SDS011;38816;51.142;-0.974;2023-03-14T10:26:57;7.28;;;1.20;;
51438;SDS011;38816;51.142;-0.974;2023-03-14T10:29:27;4.95;;;1.30;;
51438;SDS011;38816;51.142;-0.974;2023-03-14T10:31:55;6.72;;;1.52;;
51438;SDS011;38816;51.142;-0.974;2023-03-14T10:34:35;6.57;;;1.10;;
51438;SDS011;38816;51.142;-0.974;2023-03-14T10:37:07;5.88;;;1.10;;
51438;SDS011;38816;51.142;-0.974;2023-03-14T10:39:46;4.05;;;1.30;;
51438;SDS011;38816;51.142;-0.974;2023-03-14T10:42:15;6.30;;;1.10;;
51438;SDS011;38816;51.142;-0.974;2023-03-14T10:44:41;4.57;;;1.00;;
51438;SDS011;38816;51.142;-0.974;2023-03-14T10:47:12;7.13;;;1.20;;
51438;SDS011;38816;51.142;-0.974;2023-03-14T10:49:44;6.47;;;1.58;;
51438;SDS011;38816;51.142;-0.974;2023-03-14T10:52:14;7.10;;;1.20;;
51438;SDS011;38816;51.142;-0.974;2023-03-14T10:54:46;5.00;;;1.33;;
51438;SDS011;38816;51.142;-0.974;2023-03-14T10:57:12;8.55;;;1.63;;
51438;SDS011;38816;51.142;-0.974;2023-03-14T10:59:39;5.10;;;1.15;;
51438;SDS011;38816;51.142;-0.974;2023-03-14T11:10:41;9.07;;;1.50;;
51438;SDS011;38816;51.142;-0.974;2023-03-14T11:18:48;1.95;;;0.80;;
51438;SDS011;38816;51.142;-0.974;2023-03-14T11:24:25;3.80;;;1.08;;
51438;SDS011;38816;51.142;-0.974;2023-03-14T11:27:06;5.28;;;1.10;;
51438;SDS011;38816;51.142;-0.974;2023-03-14T11:29:40;8.43;;;1.70;;
51438;SDS011;38816;51.142;-0.974;2023-03-14T11:32:13;6.55;;;1.30;;
51438;SDS011;38816;51.142;-0.974;2023-03-14T11:34:48;7.87;;;1.30;;
51438;SDS011;38816;51.142;-0.974;2023-03-14T11:37:26;8.90;;;1.45;;
51438;SDS011;38816;51.142;-0.974;2023-03-14T11:39:59;5.38;;;1.15;;
51438;SDS011;38816;51.142;-0.974;2023-03-14T11:42:30;8.15;;;1.33;;
51438;SDS011;38816;51.142;-0.974;2023-03-14T11:44:57;4.05;;;1.13;;
51438;SDS011;38816;51.142;-0.974;2023-03-14T11:47:37;5.90;;;1.42;;
51438;SDS011;38816;51.142;-0.974;2023-03-14T11:55:30;11.18;;;1.70;;
51438;SDS011;38816;51.142;-0.974;2023-03-14T11:58:05;8.80;;;1.60;;
51438;SDS011;38816;51.142;-0.974;2023-03-14T12:00:54;11.63;;;1.83;;
51438;SDS011;38816;51.142;-0.974;2023-03-14T12:12:18;7.65;;;1.73;;
51438;SDS011;38816;51.142;-0.974;2023-03-14T12:14:27;8.45;;;2.15;;
51438;SDS011;38816;51.142;-0.974;2023-03-14T12:25:18;7.50;;;1.20;;
51438;SDS011;38816;51.142;-0.974;2023-03-14T12:27:47;6.30;;;1.45;;
51438;SDS011;38816;51.142;-0.974;2023-03-14T12:33:38;7.25;;;1.75;;
51438;SDS011;38816;51.142;-0.974;2023-03-14T12:35:42;9.10;;;1.45;;
51438;SDS011;38816;51.142;-0.974;2023-03-14T12:41:03;10.02;;;1.90;;
51438;SDS011;38816;51.142;-0.974;2023-03-14T12:43:38;8.88;;;1.52;;
51438;SDS011;38816;51.142;-0.974;2023-03-14T12:46:15;4.70;;;1.35;;
51438;SDS011;38816;51.142;-0.974;2023-03-14T12:49:05;6.07;;;1.13;;
51438;SDS011;38816;51.142;-0.974;2023-03-14T12:51:42;6.47;;;1.35;;
51438;SDS011;38816;51.142;-0.974;2023-03-14T12:54:18;5.47;;;0.90;;
51438;SDS011;38816;51.142;-0.974;2023-03-14T12:59:50;4.60;;;0.82;;
51438;SDS011;38816;51.142;-0.974;2023-03-14T13:05:28;4.38;;;1.35;;
51438;SDS011;38816;51.142;-0.974;2023-03-14T13:12:37;4.07;;;1.00;;
51438;SDS011;38816;51.142;-0.974;2023-03-14T13:15:20;3.05;;;0.60;;
51438;SDS011;38816;51.142;-0.974;2023-03-14T13:17:47;3.20;;;0.52;;
51438;SDS011;38816;51.142;-0.974;2023-03-14T13:20:19;6.22;;;0.80;;
51438;SDS011;38816;51.142;-0.974;2023-03-14T13:22:49;3.47;;;0.70;;
51438;SDS011;38816;51.142;-0.974;2023-03-14T13:25:15;4.28;;;0.90;;
51438;SDS011;38816;51.142;-0.974;2023-03-14T13:27:43;3.08;;;0.85;;
51438;SDS011;38816;51.142;-0.974;2023-03-14T13:30:18;2.65;;;0.65;;
51438;SDS011;38816;51.142;-0.974;2023-03-14T13:32:46;1.55;;;0.40;;
51438;SDS011;38816;51.142;-0.974;2023-03-14T13:35:20;3.50;;;0.60;;
51438;SDS011;38816;51.142;-0.974;2023-03-14T13:37:58;2.00;;;0.73;;
51438;SDS011;38816;51.142;-0.974;2023-03-14T13:40:31;7.80;;;3.10;;
51438;SDS011;38816;51.142;-0.974;2023-03-14T13:43:44;3.78;;;1.10;;
51438;SDS011;38816;51.142;-0.974;2023-03-14T13:46:15;1.92;;;0.70;;
51438;SDS011;38816;51.142;-0.974;2023-03-14T13:48:46;0.77;;;0.40;;
51438;SDS011;38816;51.142;-0.974;2023-03-14T13:51:16;2.25;;;0.60;;
51438;SDS011;38816;51.142;-0.974;2023-03-14T13:53:47;1.83;;;0.57;;
51438;SDS011;38816;51.142;-0.974;2023-03-14T13:56:14;3.33;;;0.85;;
51438;SDS011;38816;51.142;-0.974;2023-03-14T13:58:40;6.22;;;1.00;;
51438;SDS011;38816;51.142;-0.974;2023-03-14T14:01:11;2.13;;;0.70;;
51438;SDS011;38816;51.142;-0.974;2023-03-14T14:03:40;2.90;;;0.63;;
51438;SDS011;38816;51.142;-0.974;2023-03-14T14:06:16;0.88;;;0.47;;
51438;SDS011;38816;51.142;-0.974;2023-03-14T14:08:48;0.57;;;0.38;;
51438;SDS011;38816;51.142;-0.974;2023-03-14T14:11:18;2.45;;;0.85;;
51438;SDS011;38816;51.142;-0.974;2023-03-14T14:13:55;2.95;;;0.90;;
51438;SDS011;38816;51.142;-0.974;2023-03-14T14:16:23;1.98;;;0.95;;
51438;SDS011;38816;51.142;-0.974;2023-03-14T14:18:51;3.20;;;0.82;;
51438;SDS011;38816;51.142;-0.974;2023-03-14T14:21:19;2.22;;;0.63;;
51438;SDS011;38816;51.142;-0.974;2023-03-14T14:23:44;2.72;;;0.60;;
51438;SDS011;38816;51.142;-0.974;2023-03-14T14:26:13;4.35;;;0.70;;
51438;SDS011;38816;51.142;-0.974;2023-03-14T14:28:41;1.13;;;0.60;;
51438;SDS011;38816;51.142;-0.974;2023-03-14T14:34:01;1.08;;;0.57;;
51438;SDS011;38816;51.142;-0.974;2023-03-14T14:36:36;0.85;;;0.60;;
51438;SDS011;38816;51.142;-0.974;2023-03-14T14:39:09;1.52;;;0.60;;
51438;SDS011;38816;51.142;-0.974;2023-03-14T14:41:40;1.20;;;0.47;;
51438;SDS011;38816;51.142;-0.974;2023-03-14T14:44:07;0.52;;;0.30;;
51438;SDS011;38816;51.142;-0.974;2023-03-14T14:46:37;0.50;;;0.50;;
51438;SDS011;38816;51.142;-0.974;2023-03-14T14:49:04;0.65;;;0.50;;
51438;SDS011;38816;51.142;-0.974;2023-03-14T14:51:38;2.53;;;0.60;;
51438;SDS011;38816;51.142;-0.974;2023-03-14T14:54:14;2.17;;;0.60;;
51438;SDS011;38816;51.142;-0.974;2023-03-14T14:56:49;1.48;;;0.60;;
51438;SDS011;38816;51.142;-0.974;2023-03-14T14:59:21;0.60;;;0.60;;
51438;SDS011;38816;51.142;-0.974;2023-03-14T15:01:48;1.38;;;0.82;;
51438;SDS011;38816;51.142;-0.974;2023-03-14T15:04:16;1.52;;;0.50;;
51438;SDS011;38816;51.142;-0.974;2023-03-14T15:06:45;1.33;;;0.50;;
51438;SDS011;38816;51.142;-0.974;2023-03-14T15:09:14;0.93;;;0.32;;
51438;SDS011;38816;51.142;-0.974;2023-03-14T15:11:41;1.50;;;0.40;;
51438;SDS011;38816;51.142;-0.974;2023-03-14T15:14:06;3.10;;;0.65;;
51438;SDS011;38816;51.142;-0.974;2023-03-14T15:16:32;1.38;;;0.52;;
51438;SDS011;38816;51.142;-0.974;2023-03-14T15:18:58;2.47;;;0.60;;
51438;SDS011;38816;51.142;-0.974;2023-03-14T15:21:30;1.92;;;0.70;;
51438;SDS011;38816;51.142;-0.974;2023-03-14T15:23:56;1.38;;;0.80;;
51438;SDS011;38816;51.142;-0.974;2023-03-14T15:26:23;2.03;;;0.77;;
51438;SDS011;38816;51.142;-0.974;2023-03-14T15:28:50;3.38;;;0.60;;
51438;SDS011;38816;51.142;-0.974;2023-03-14T15:31:16;2.33;;;0.73;;
51438;SDS011;38816;51.142;-0.974;2023-03-14T15:33:43;4.60;;;0.60;;
51438;SDS011;38816;51.142;-0.974;2023-03-14T15:36:16;3.20;;;0.80;;
51438;SDS011;38816;51.142;-0.974;2023-03-14T15:38:53;0.98;;;0.60;;
51438;SDS011;38816;51.142;-0.974;2023-03-14T15:41:20;0.52;;;0.22;;
51438;SDS011;38816;51.142;-0.974;2023-03-14T15:43:48;2.95;;;0.60;;
51438;SDS011;38816;51.142;-0.974;2023-03-14T15:46:14;3.15;;;0.65;;
51438;SDS011;38816;51.142;-0.974;2023-03-14T15:48:42;2.45;;;0.60;;
51438;SDS011;38816;51.142;-0.974;2023-03-14T15:51:08;2.90;;;0.70;;
51438;SDS011;38816;51.142;-0.974;2023-03-14T15:53:33;1.52;;;0.55;;
51438;SDS011;38816;51.142;-0.974;2023-03-14T15:56:01;2.15;;;0.75;;
51438;SDS011;38816;51.142;-0.974;2023-03-14T15:58:28;2.67;;;0.57;;
51438;SDS011;38816;51.142;-0.974;2023-03-14T16:00:53;1.30;;;0.50;;